Terminal Aerodrome Forecast
Issued by NWS Upton, NY

Home | Current Version | Previous Version | Text Only | Print | Product List | Glossary On
Versions: 1 2 3 4 5 6 7 8 9 10 11 12 13 14 15 16 17 18 19 20 21 22 23 24 25 26 27 28
000
FTUS41 KOKX 221100
TAFISP
TAF
KISP 221124Z 2212/2312 03009KT P6SM BKN009 OVC040
      TEMPO 2212/2215 SCT009 OVC040
     FM221700 07008KT 6SM -RA BKN010 OVC025
     FM230700 05008KT 5SM -RA BR OVC008=

USA.gov is the U.S. government's official web portal to all federal, state and local government web resources and services.